createdAt,value
2022-09-24T00:05:37.081Z,42.40
2022-09-24T00:12:07.185Z,38.30
2022-09-24T00:18:35.876Z,43.10
2022-09-24T00:25:51.104Z,38.60
2022-09-24T00:32:33.829Z,40.10
2022-09-24T00:39:11.999Z,36.10
2022-09-24T00:46:08.204Z,36.10
2022-09-24T00:52:50.107Z,31.90
2022-09-24T00:59:42.126Z,31.00
2022-09-24T01:06:28.050Z,39.00
2022-09-24T01:13:43.436Z,34.80
2022-09-24T01:20:46.182Z,39.00
2022-09-24T01:27:37.977Z,38.40
2022-09-24T01:34:14.026Z,35.60
2022-09-24T01:40:53.325Z,33.70
2022-09-24T01:47:39.835Z,36.40
2022-09-24T01:54:38.044Z,30.80
2022-09-24T02:01:31.104Z,34.60
2022-09-24T02:07:23.687Z,34.30
2022-09-24T02:14:26.009Z,31.90
2022-09-24T02:20:32.740Z,35.70
2022-09-24T02:27:18.773Z,36.00
2022-09-24T02:33:55.742Z,32.00
2022-09-24T02:40:46.181Z,33.80
2022-09-24T02:47:37.106Z,36.40
2022-09-24T02:54:01.588Z,33.20
2022-09-24T03:00:42.190Z,30.20
2022-09-24T03:07:04.540Z,34.90
2022-09-24T03:13:42.888Z,29.20
2022-09-24T03:20:22.752Z,33.60
2022-09-24T03:26:56.814Z,34.40
2022-09-24T03:33:21.400Z,39.20
2022-09-24T03:39:47.659Z,34.80
2022-09-24T03:46:20.312Z,31.90
2022-09-24T03:52:50.473Z,29.40
2022-09-24T04:00:12.732Z,25.50
2022-09-24T04:06:49.986Z,25.40
2022-09-24T04:13:34.528Z,28.90
2022-09-24T04:20:15.735Z,35.50
2022-09-24T04:27:18.831Z,32.20
2022-09-24T04:34:18.164Z,41.40
2022-09-24T04:40:40.010Z,37.50
2022-09-24T04:47:32.115Z,29.20
2022-09-24T04:54:27.857Z,30.90
2022-09-24T05:01:24.150Z,25.80
2022-09-24T05:08:12.814Z,33.70
2022-09-24T05:14:53.749Z,37.40
2022-09-24T05:21:35.283Z,39.30
2022-09-24T05:28:16.013Z,44.90
2022-09-24T05:35:10.798Z,44.60
2022-09-24T05:42:02.899Z,33.50
2022-09-24T05:48:49.810Z,36.90
2022-09-24T05:55:43.017Z,37.80
2022-09-24T06:02:11.317Z,39.40
2022-09-24T06:07:41.662Z,32.00
2022-09-24T06:13:47.502Z,40.10
2022-09-24T06:19:52.980Z,28.20
2022-09-24T06:25:44.515Z,32.40
2022-09-24T06:32:05.266Z,35.00
2022-09-24T06:38:34.299Z,36.00
2022-09-24T06:45:09.756Z,28.10
2022-09-24T06:51:55.920Z,35.90
2022-09-24T06:58:40.286Z,32.80
2022-09-24T07:05:31.472Z,32.30
2022-09-24T07:12:12.561Z,30.10
2022-09-24T07:19:15.431Z,32.50
2022-09-24T07:25:49.972Z,25.50
2022-09-24T07:32:00.558Z,32.30
2022-09-24T07:38:44.867Z,31.90
2022-09-24T07:45:16.171Z,31.10
2022-09-24T07:51:03.131Z,28.30
2022-09-24T07:56:17.948Z,23.60
2022-09-24T08:01:24.689Z,19.50
2022-09-24T08:06:48.612Z,27.90
2022-09-24T08:12:46.815Z,24.10
2022-09-24T08:19:00.987Z,22.10
2022-09-24T08:24:32.682Z,17.40
2022-09-24T08:30:08.629Z,22.50
2022-09-24T08:36:04.808Z,21.60
2022-09-24T08:42:54.401Z,19.50
2022-09-24T08:48:48.178Z,16.10
2022-09-24T08:55:06.077Z,16.50
2022-09-24T09:01:00.481Z,18.60
2022-09-24T09:07:13.942Z,19.20
2022-09-24T09:13:51.208Z,12.00
2022-09-24T09:20:47.530Z,10.60
2022-09-24T09:27:12.615Z,11.50
2022-09-24T09:33:43.088Z,12.20
2022-09-24T09:40:08.933Z,8.70
2022-09-24T09:46:58.161Z,6.70
2022-09-24T09:53:35.739Z,10.20
2022-09-24T09:59:54.721Z,9.10
2022-09-24T10:06:53.919Z,7.70
2022-09-24T10:13:45.769Z,8.80
2022-09-24T10:19:32.643Z,5.90
2022-09-24T10:24:59.943Z,5.00
2022-09-24T10:30:35.659Z,6.10
2022-09-24T10:35:52.524Z,5.10
2022-09-24T10:42:25.696Z,4.60
2022-09-24T10:47:59.715Z,4.40
2022-09-24T10:53:40.912Z,4.30
2022-09-24T11:00:39.401Z,6.90
2022-09-24T11:06:51.586Z,5.80
2022-09-24T11:12:45.897Z,6.50
2022-09-24T11:19:21.031Z,6.90
2022-09-24T11:26:11.863Z,7.10
2022-09-24T11:32:34.368Z,3.20
2022-09-24T11:39:01.702Z,4.40
2022-09-24T11:45:18.895Z,3.50
2022-09-24T11:51:39.231Z,2.70
2022-09-24T11:57:53.263Z,6.20
2022-09-24T12:04:13.843Z,3.20
2022-09-24T12:10:03.095Z,3.20
2022-09-24T12:15:43.194Z,3.80
2022-09-24T12:21:32.199Z,6.50
2022-09-24T12:27:32.397Z,6.50
2022-09-24T12:39:52.988Z,4.20
2022-09-24T12:45:41.590Z,9.60
2022-09-24T12:51:05.220Z,8.80
2022-09-24T12:56:41.183Z,4.20
2022-09-24T13:02:14.246Z,4.00
2022-09-24T13:08:29.913Z,3.20
2022-09-24T13:14:46.018Z,3.40
2022-09-24T13:21:36.141Z,3.50
2022-09-24T13:28:01.381Z,4.20
2022-09-24T13:34:25.216Z,5.60
2022-09-24T13:40:37.742Z,3.60
2022-09-24T13:46:44.337Z,3.40
2022-09-24T13:53:14.454Z,3.90
2022-09-24T13:59:04.404Z,3.90
2022-09-24T14:04:46.541Z,5.60
2022-09-24T14:10:48.919Z,13.10
2022-09-24T14:16:37.910Z,7.00
2022-09-24T14:22:59.251Z,15.80
2022-09-24T14:28:35.906Z,24.80
2022-09-24T14:34:43.969Z,13.60
2022-09-24T14:40:24.986Z,23.40
2022-09-24T14:46:25.920Z,6.70
2022-09-24T14:52:04.474Z,4.10
2022-09-24T14:58:24.950Z,7.80
2022-09-24T15:04:50.918Z,5.00
2022-09-24T15:10:25.252Z,5.50
2022-09-24T15:16:33.918Z,7.70
2022-09-24T15:22:28.966Z,5.30
2022-09-24T15:28:22.734Z,5.10
2022-09-24T15:34:29.863Z,5.40
2022-09-24T15:40:30.868Z,5.60
2022-09-24T15:46:34.508Z,8.80
2022-09-24T15:52:53.198Z,6.60
2022-09-24T15:59:02.828Z,4.70
2022-09-24T16:04:53.939Z,7.10
2022-09-24T16:10:33.935Z,6.40
2022-09-24T16:16:16.376Z,10.80
2022-09-24T16:22:18.239Z,8.60
2022-09-24T16:28:33.602Z,7.20
2022-09-24T16:34:57.132Z,6.90
2022-09-24T16:41:14.255Z,8.00
2022-09-24T16:47:28.689Z,7.50
2022-09-24T16:53:34.472Z,7.50
2022-09-24T17:00:08.799Z,10.90
2022-09-24T17:06:33.515Z,15.90
2022-09-24T17:13:02.486Z,20.20
2022-09-24T17:19:15.632Z,15.50
2022-09-24T17:25:25.381Z,38.30
2022-09-24T17:31:21.329Z,30.70
2022-09-24T17:37:12.016Z,28.50
2022-09-24T17:43:11.868Z,31.20
2022-09-24T17:49:07.113Z,24.20
2022-09-24T17:54:47.408Z,25.50
2022-09-24T17:59:57.730Z,28.10
2022-09-24T18:06:13.068Z,37.90
2022-09-24T18:12:34.918Z,40.20
2022-09-24T18:18:31.995Z,49.40
2022-09-24T18:24:25.532Z,48.00
2022-09-24T18:30:51.439Z,39.50
2022-09-24T18:36:17.674Z,31.80
2022-09-24T18:41:50.927Z,33.50
2022-09-24T18:47:05.921Z,32.20
2022-09-24T18:53:06.025Z,36.90
2022-09-24T18:58:29.540Z,34.60
2022-09-24T19:04:31.731Z,38.60
2022-09-24T19:10:20.654Z,35.10
2022-09-24T19:17:09.464Z,39.50
2022-09-24T19:23:52.659Z,38.70
2022-09-24T19:30:24.631Z,50.50
2022-09-24T19:36:25.425Z,42.60
2022-09-24T19:42:06.803Z,45.60
2022-09-24T19:47:09.041Z,51.70
2022-09-24T19:52:42.841Z,48.30
2022-09-24T19:58:08.375Z,53.60
2022-09-24T20:04:00.990Z,50.50
2022-09-24T20:09:59.381Z,116.80
2022-09-24T20:16:17.292Z,53.10
2022-09-24T20:22:50.082Z,42.40
2022-09-24T20:28:52.885Z,50.30
2022-09-24T20:34:42.169Z,39.00
2022-09-24T20:40:13.195Z,43.50
2022-09-24T20:46:31.872Z,41.80
2022-09-24T20:52:51.288Z,45.80
2022-09-24T20:59:21.045Z,102.20
2022-09-24T21:05:21.919Z,59.90
2022-09-24T21:11:38.196Z,50.40
2022-09-24T21:18:21.652Z,51.60
2022-09-24T21:25:25.940Z,49.40
2022-09-24T21:31:32.926Z,49.10
2022-09-24T21:38:19.846Z,45.30
2022-09-24T21:45:02.712Z,39.70
2022-09-24T21:51:48.517Z,39.40
2022-09-24T21:58:02.594Z,44.60
2022-09-24T22:04:31.036Z,43.50
2022-09-24T22:10:42.644Z,41.80
2022-09-24T22:17:42.997Z,49.80
2022-09-24T22:24:01.024Z,36.50
2022-09-24T22:31:09.591Z,40.40
2022-09-24T22:37:34.236Z,38.30
2022-09-24T22:43:54.236Z,41.40
2022-09-24T22:50:12.361Z,40.90
2022-09-24T22:55:58.499Z,35.40
2022-09-24T23:02:20.406Z,36.00
2022-09-24T23:08:10.967Z,32.40
2022-09-24T23:14:48.132Z,35.30
2022-09-24T23:20:37.981Z,32.00
2022-09-24T23:26:45.009Z,32.40
2022-09-24T23:32:54.913Z,31.50
2022-09-24T23:39:14.467Z,30.60
2022-09-24T23:45:25.510Z,33.90
2022-09-24T23:51:51.642Z,33.70
2022-09-24T23:58:36.876Z,29.20
